Event Stats: Connecticut (MPO)

Last Updated: 2022-09-26 18:24:38

Shows events in the Statmando database that have been held in Connecticut and that include an MPO Division, capped at the most recent 1000 events.
Name EventEndDate Tour City FieldSize AvgRating TotalPurse EventRounds Winner WinnerEventRating WinnerCashPerThrow WinnerPrize
Greater Hartford Disc Golf Open Driven by Innova 2022-09-11 A Manchester 48 968.1678 0 3 Andrew Fish 1039.0000 0.0000 0
CT Flex Series: Wickham 2022-08-13 C Manchester 17 944.5882 207 1 Jared Hill 1012.0000 1.3922 71
CT Flex Series: Veteran's 2022-08-07 C Bridgeport 15 940.2667 210 1 PDGA #116005 1011.0000 1.3529 69
Fairfield University Open 2022-07-30 C Fairfield 20 949.0000 2,120 2 Jared Hill 1015.0000 3.1383 295
Panthorn's Get Ripped Wide Open - All Pro & MA1 2022-07-17 B Southington 30 951.5167 4,606 2 Dylan Capaccioli 1001.5000 5.2286 549
Disc Golf Brah Presents The Park City Open 2022-07-10 B Bridgeport 21 958.1190 3,518 2 David Fleck 1012.5000 4.6275 472
CT Flex Series: Bittner 2022-07-09 C Guilford 12 926.1667 168 1 PDGA #72515 1002.0000 1.3043 60
West Thompson Open 2022-07-09 C North Grosvenordale 4 980.3750 0 2 Paul Krans 1013.5000 0.0000 0
Ring the Bell at Tower Ridge - All Pro & MA1 2022-07-02 B Simsbury 28 955.4286 4,200 2 Kyle Moriarty 1005.0000 4.8173 501
CT Flex Series: Page 2022-06-18 C Bristol 14 935.1429 196 1 PDGA #109971 983.0000 1.2500 65
CT Flex Series: Nichols 2022-06-12 C Moodus 12 943.1667 168 1 PDGA #92301 991.0000 1.0909 60
Dragonfly Upshot 2022-06-11 C Stonington 10 928.8000 902 2 PDGA #129010 989.0000 1.5980 163
2022 Zambia Open Fundraiser Flex Start - Chikumbuso Disc Golf Course (CEP Charity - Rated) 2022-05-28 XC North Stonington 2 933.0000 0 1 PDGA #102895 986.0000 0.0000 0
CT Flex Series: Tower Ridge 2022-05-21 C Simsbury 15 953.8667 210 1 PDGA #79810 1010.0000 1.1538 60
CT Flex Series: Tower Ridge 2022-05-21 C Simsbury 15 953.8667 210 1 Jared Hill 1010.0000 1.1538 60
CT Flex Series: Norbrook 2022-05-14 C Colebrook 15 929.2000 210 1 PDGA #72515 1002.0000 1.2292 59
CT Flex Series: Norbrook 2022-05-14 C Colebrook 15 929.2000 210 1 PDGA #109971 1002.0000 1.2292 59
Bittner Park Pro Open 2022-04-30 C Guilford 30 930.9153 3,564 2 PDGA #120786 1003.0000 3.9057 414
Cross Farms Open 2022 - MPO & MA1 2022-04-23 C Tolland 22 960.4318 3,056 2 PDGA #47932 998.0000 4.0594 410
CT Flex Series: Panthorn 2022-04-10 C Southington 14 940.2143 196 1 PDGA #66812 996.0000 1.0000 55
CT Flex Series: Panthorn 2022-04-10 C Southington 14 940.2143 196 1 PDGA #167479 996.0000 1.0000 55
Cranbury Park Ice Bowl (CEP Charity - Rated) 2022-02-26 XC Norwalk 24 942.3404 2,010 2 PDGA #20090 1017.5000 2.5000 265
Dragonfly Open - Pro & MA1 FA1 2021-10-31 B Stonington 19 965.4722 5,480 2 Shane Wyatt 1021.0000 8.0521 773
2021 Norbrook Fall Fling 2021-10-17 B Colebrook 19 966.0526 4,794 2 Casey White 1060.0000 7.7356 673
2021 Cross Farms Open Powered by Hyzer Disc Sports - Pro/Adv 2021-10-09 C Tolland 17 944.7879 2,426 2 PDGA #72407 994.5000 3.6634 370
Greater Hartford Disc Golf Open 2021-09-19 A Manchester 48 964.0972 27,027 3 Bradley Williams 1051.3333 9.3063 1,489
Brewport Open - Pro 2021-08-28 B Bridgeport 40 958.6795 8,600 2 Cale Leiviska 1021.0000 8.2353 840
Shore Thing: Nichols 2021-08-14 C Moodus 3 949.6667 245 1 PDGA #72515 962.0000 2.6724 155
2021 Firefly Hollow 2021-08-08 A Bristol 37 958.0943 21,510 3 PDGA #72429 1023.0000 10.1218 1,579
Panthorn's Get Ripped Wide Open - All Pro & MA1 2021-07-25 B Southington 15 942.4333 2,834 2 PDGA #148580 979.0000 4.2162 468
2021 Camp Brook Open 2021-05-15 C North Canaan 12 944.7500 1,792 2 PDGA #23188 982.0000 3.0762 323
Bittner Park Open 2021-04-10 C Guilford 22 914.0909 2,200 2 PDGA #45234 974.5000 2.9697 294
2020 Norbrook Fall Fling - MPO, FPO, MP40, MP50, MA1, MA40, MA50 2020-10-24 C Colebrook 21 950.0952 2,112 2 PDGA #72429 1004.5000 2.9175 283
Cross Farms Open Powered By Hyzer Disc Sports 2020-10-03 C Tolland 4 947.8750 380 2 PDGA #72515 998.0000 1.2500 125
2020 Camp Brook Open 2020-09-12 C North Canaan 9 951.5000 864 2 PDGA #23188 993.0000 1.7624 178
The Greater Hartford Disc Golf Open 2020-08-23 A Manchester 46 966.8248 24,465 3 Casey White 1034.3333 8.8554 1,470
Cranbury Park Ice Bowl 2020-02-22 C Norwalk 23 957.2222 1,610 2 Eric Schubert 1017.5000 2.0388 210
The F.U. Winter Open 2019-12-22 C Fairfield 7 946.9286 490 2 PDGA #23188 1002.0000 1.2000 120
Cranbury Classic 2019-11-09 B Norwalk 23 955.4348 3,740 2 PDGA #45100 1024.5000 4.7549 485
Norbrook Fall Fling 2019-10-27 C Colebrook 3 986.0000 288 2 PDGA #60300 1015.0000 0.8824 90
2019 Firefly Hollow Open Presented by the City of Bristol, Powered by Prodigy 2019-10-20 A Bristol 17 954.6667 16,155 3 Andrew Fish 1025.0000 9.4843 1,508
CT Craft Brew Series Finals - Driven by Innova 2019-10-13 C East Haddam 4 934.2500 1,578 2 PDGA #72429 978.5000 4.3246 493
The Greater Hartford Disc Golf Open 2019-09-22 A Manchester 26 978.9481 15,888 3 Matt Bell 1038.3333 7.0588 1,320
Feed The Beast Presented By Five Churches Brewing - Driven By Innova 2019-09-14 B Bristol 12 951.3750 2,512 2 PDGA #23188 1023.0000 4.5579 433
Steady Habit Open 2019 - Driven by Innova 2019-08-10 B Moodus 9 938.7222 1,886 2 Jared Hill 970.0000 2.9098 387
West Thompson Open (Stidham Series) 2019-08-04 C North Grosvenordale 14 951.4444 1,020 2 Kevin Kohltrain 1007.0000 1.6495 160
Brewport Brewing Open - Pros 2019-06-16 B Bridgeport 19 955.0000 3,012 2 PDGA #23188 1005.5000 3.8942 405
Bittner Park Open 2019-05-18 C Guilford 9 946.3529 1,300 2 PDGA #23188 991.0000 2.5980 265
2019 Camp Brook Open, driven by Innova 2019-05-11 C North Canaan 12 936.2500 1,112 2 PDGA #23188 1011.0000 2.0202 200
WILLIBREW OPEN Drivin by Innova 2019-04-28 B tolland 12 935.0833 2,342 2 PDGA #76761 987.0000 3.6923 384
Sherwood Island Ice Bowl 2019-02-24 C Westport 11 946.1429 770 2 PDGA #23188 1028.0000 1.6500 165
Beware! Falling Rock 2018 2018-11-17 C Bristol 4 909.8750 304 2 PDGA #60731 973.0000 0.7680 96
Connecticut Points Series Finale 2018-10-06 B Bridgeport 11 939.6364 2,048 2 PDGA #72429 1005.5000 3.2500 338
Connecticut Disc Golf Presents: The Thimble Island Open 2018-09-30 B Guilford 14 935.9643 2,400 2 Kyle Moriarty 1019.5000 3.5368 336
NEFA Finals 2018 Presented by Two Roads - Pros 2018-09-23 C Bridgeport 18 965.6389 3,456 2 Kyle Moriarty 1017.5000 4.5842 463
Feed The Beast VI 2018-09-15 C Bristol 13 946.8077 1,110 2 PDGA #72429 1012.5000 2.0619 200
Park City Open 2018-09-08 C Bridgeport 12 955.1250 1,466 2 PDGA #23188 1022.0000 2.6300 263
Greater Hartford Disc Golf Open, Sponsored by Limitless Disc Golf 2018-09-02 A Manchester 31 977.4194 20,178 3 Matt Orum 1048.3333 8.5275 1,552
NEBCO OPEN 2018-08-25 B Wallingford 10 949.6500 1,942 2 PDGA #20004 979.0000 3.2925 349
Steady Habit Open Sponsored by Dynamic Discs 2018-08-11 B Moodus 9 941.5000 1,690 2 PDGA #88767 970.5000 2.6068 305
Brewport Brewing Open 2018-06-23 B Bridgeport 13 957.0000 2,750 2 PDGA #23188 999.5000 4.3333 455
2018 Firefly Hollow Open 2018-05-27 B Bristol 23 953.9118 9,099 4 PDGA #61055 997.6667 3.5897 700
Sherwood Island Open + WGE 2018-05-12 C Westport 16 957.8125 1,540 2 PDGA #23188 1032.0000 2.6842 255
3rd Annual RA[email protected] Sponsored by Latitude 64 + WGE 2018-05-12 C Bristol 8 941.8125 690 2 PDGA #84048 994.5000 1.5865 165
Willibrew Open - Adv & Pro, Sponsored by Latitude 64 2018-04-22 B Tolland 19 942.9211 2,734 2 Samuel Henderson 1012.0000 3.6061 357
Cranbury Park Ice Bowl 2018-02-24 C Norwalk 24 948.9167 2,672 2 PDGA #45100 1008.0000 3.3495 345
Sherwood Island Pro Invitational 2017-12-09 C Westport 18 937.2222 1,568 2 PDGA #23188 1046.0000 2.3158 220
Camp Brook Classic 2017-10-14 C Canaan 3 917.0000 290 2 PDGA #78874 938.5000 1.3303 145
Feed the Beast V 2017-10-07 C Bristol 12 961.1250 1,480 2 PDGA #23188 987.5000 2.5248 255
Nichols Field Open (Steady Habit Open) 2017-09-30 C Moodus 7 959.4286 630 2 PDGA #67317 980.0000 1.2281 140
Greater Hartford Disc Golf Open 2017-09-10 A Manchester 32 984.0316 17,217 3 Bradley Williams 1017.0000 7.0564 1,376
Panthorn's 2017 GRWO 2017-08-19 B Southington 9 954.7778 1,386 2 PDGA #23188 1018.0000 3.4000 340
West Thompson Open 2017-07-30 C North Grosvenordale 16 962.4063 872 2 Zach Longeill 1006.5000 0.0000 0
Throw Through the Trees: A Camp Brook Charity Event 2017-07-15 C Canaan 3 919.6667 0 2 PDGA #82705 938.0000 0.0000 0
Park City Open 2017-06-17 B Bridgeport 18 957.8333 3,094 2 PDGA #23188 1043.0000 4.5579 433
2017 FireFly Hollow Open 2017-06-11 B Bristol 11 968.4375 6,080 4 PDGA #61055 1005.0000 2.8075 525
2nd Annual [email protected] PAGE 2017-05-27 C Bristol 8 968.5625 768 2 PDGA #77683 1011.0000 1.5979 155
Cross Farms Open - All Pro + MA1 2017-04-23 B Tolland 21 943.6905 2,530 2 Mark Chapalonis 993.0000 3.5784 365
PCDGC Charity Chuck - Episode I: Empire Strikes Chains 2017-03-12 C Bridgeport 9 951.0588 540 2 PDGA #23188 1023.5000 1.0673 111
Cranbury Ice Bowl 2017-02-25 C Norwalk 22 948.0909 0 2 PDGA #20004 998.0000 0.0000 0
Fall Classic 2016-11-26 B Tolland 9 940.4444 1,702 2 PDGA #56757 966.0000 3.2407 350
Cranbury Classic - All Pro & MA1 2016-10-29 B Norwalk 21 965.6667 3,424 2 PDGA #23188 1046.5000 4.7340 445
Ecker Hill Open II 2016-10-15 C Vernon 10 936.0000 1,060 2 PDGA #82953 1009.0000 1.9192 190
Beware: Falling Rock! 2016-09-25 C Bristol 17 944.3030 1,480 2 PDGA #38910 1005.0000 1.9732 221
Feed the Beast IV 2016-08-28 C Bristol 9 957.6111 1,260 2 PDGA #77683 1010.5000 2.6875 258
Panthorn's Get Ripped Wide Open 2016-08-27 C Southington 12 936.3750 1,190 2 PDGA #23188 1006.0000 2.0874 215
Park City Open 2016-07-02 B Bridgeport 21 960.8537 3,202 2 PDGA #23188 1044.5000 4.3789 416
The Greater Hartford Disc Golf Open, Sponsored by SVEDKA Imported Vodka 2016-06-19 A Manchester 35 973.8000 23,050 4 Will Schusterick 1019.3333 6.6355 1,420
3rd Annual Major Lufbery Memorial 2016-05-22 C Wallingford 11 943.3636 1,326 2 PDGA #38910 1000.0000 2.2981 239
[email protected] 2016-04-30 C Bristol 8 931.5625 580 2 PDGA #67317 983.5000 1.1765 120
Cross Farms Open sponsored by Latitude 64 - FPO, MPO, MPM, MPG, MPS, MA1 2016-04-24 B Tolland 18 948.6111 2,216 2 Samuel Henderson 985.0000 3.3269 346
Tourney 54 2016-03-26 B N Grosvenordale 57 958.6294 8,985 3 Craig Cutler 1021.0000 3.2886 490
Cranbury Park Charity Ice Bowl 2016-02-27 C Norwalk 22 966.2273 2,560 2 Steve Brinster 1042.5000 3.4021 330
Cranbury Classic 2015-11-07 B Norwalk 19 957.7105 3,650 2 PDGA #40691 1002.5000 4.9515 510
The Ecker Hill Open 2015-10-10 C Vernon 9 952.3889 1,190 2 PDGA #67317 997.0000 2.1717 215
Park City Open 2015-09-12 B Bridgeport 16 960.2813 2,554 2 PDGA #45100 1010.5000 3.7282 384
2015 Feed the Beast in 3D 2015-09-05 B Bristol 6 960.0000 1,120 2 PDGA #20004 1001.5000 3.4848 345
Panthorn Get Ripped Wide OPEN 2015-08-22 B Southington 10 950.5000 1,640 2 PDGA #23188 1004.0000 3.7981 395
The West Thompson Open 2015-07-18 C North Grosvenor Dale 16 947.5000 986 2 PDGA #38910 980.5000 1.5534 160
Greater Hartford Disc Golf Open, sponsored by Olde Burnside Brewing Company 2015-07-05 A Manchester 28 967.7381 17,681 4 PDGA #23188 1014.6667 5.1852 1,120
2nd Annual Major Lufbery Memorial 2015-05-31 C Wallingford 6 944.7500 1,104 2 PDGA #40691 996.5000 2.3689 244
Tourney 54 (Pros) 2015-05-23 B Thompson 52 947.3141 8,094 3 PDGA #41647 999.6667 2.4076 378
The Cross Farms Open - Pro, Advanced 2015-04-26 B Tolland 16 961.5000 2,676 2 PDGA #23188 1010.0000 4.2000 420
Cranbury Park Charity Ice Bowl 2015-02-28 C Norwalk 19 954.6579 2,262 2 Craig Cutler 1012.0000 2.8095 295
Sherwood Island Open 2014-11-01 C Westport 14 961.9615 0 2 PDGA #38910 990.0000 0.0000 0
Park City Open 2014-10-12 C Bridgeport 15 964.1000 1,296 2 PDGA #20004 999.0000 2.3211 253
Cranbury Classic 2014-09-20 B Norwalk 19 964.7895 3,120 2 PDGA #23188 1008.5000 4.4118 450
Panthorn Get Ripped Wide Open 2014-09-14 C Southington 12 946.1304 1,470 2 PDGA #38910 976.0000 2.3874 265
Feed the Beast II 2014-08-09 C Bristol 4 966.2500 280 2 PDGA #23188 990.0000 0.8738 90
The Thompson Open 2014-07-19 C North Grosvenor Dale 17 951.0882 1,220 2 PDGA #41557 1006.0000 1.8763 182
Greater Hartford Disc Golf Open, sponsored by Olde Burnside Brewing Company 2014-07-13 A Manchester 31 970.2903 18,742 4 Ricky Wysocki 1029.0000 5.7798 1,260
Tourney 54 - SAT (MPO) 2014-03-29 C North Grosvenordale 53 957.7115 8,202 3 Steve Brinster 1031.6667 2.8041 415
SoNo Solstice Open 2013-12-21 C Norwalk 14 982.3571 239 1 PDGA #20090 1023.0000 1.1765 80
Park City Open 2013-11-09 C Bridgeport 16 966.2813 1,672 2 PDGA #23188 1029.0000 2.3039 235
Sherwood Island Open 2013-11-02 C Westport 16 972.3750 1,530 2 PDGA #23188 1033.0000 2.4468 230
Cranbury Classic 2013-09-14 B Norwalk 17 957.9118 2,684 2 PDGA #19410 1001.5000 3.5714 375
Panthorn's GETrppedWde OPEN 2013-09-01 C Southington 18 965.4000 2,710 2 PDGA #23188 1005.0000 3.7500 405
Greater Hartford Disc Golf Open Sponsored by Olde Burnside Brewing Company 2013-08-18 A Manchester 44 979.7538 22,911 4 PDGA #23188 1044.6667 5.7277 1,220
West Thompson Open 2013-05-25 C North Grosvenordale 15 949.1667 300 2 PDGA #41557 991.0000 1.3889 150
Tourney 54 2013-03-30 C North Grosvenordale 50 956.7133 8,241 3 Steve Brinster 1027.0000 2.6159 395
Fairfield County Open 2012-10-07 B Fairfield/Bridgeport, CT 18 971.1667 2,802 2 Jason Dore 1013.0000 3.8835 400
Cranbury Classic 2012-10-06 B Norwalk 15 966.9667 2,008 2 PDGA #36717 1014.5000 3.8462 400
Cranbury Classic 2012-10-06 B Norwalk 15 966.9667 2,008 2 PDGA #23188 1014.5000 2.0673 215
GetRippedWide OPEN at Panthorn DGC 2012-09-15 B Southington 21 958.6190 3,022 2 Craig Cutler 1011.0000 2.6389 285
GetRippedWide OPEN at Panthorn DGC 2012-09-15 B Southington 21 958.6190 3,022 2 PDGA #20004 1011.0000 3.9352 425
Greater Hartford Disc Golf Open, sponsored Olde Burnside Brewing Company 2012-08-26 A Manchester 39 978.2414 19,303 4 Cameron Colglazier 1033.6667 5.3066 1,125
West Thompson Open 2012-07-21 C N. Grosvenordale 15 958.9333 1,444 2 PDGA #38123 998.5000 3.0200 302
Park City Charity Open 2012-05-20 C Bridgeport 25 968.1600 2,342 2 Steve Brinster 1023.5000 2.8283 280
Tourney 54 2012-03-24 C West Thompson 38 956.7719 5,397 3 Geoff Bennett 1024.6667 2.5333 380
Cranbury Classic 2011-10-01 B Norwalk 15 980.9333 3,040 2 PDGA #19410 1026.5000 4.5098 460
Greater Hartford Disc Golf Open Sponsored by Ten Penny Ale 2011-07-24 B Manchester 26 966.3636 8,283 3 Steve Brinster 1040.0000 3.8439 665
Cow Tipping Open 2011-06-26 C Southington 12 947.2917 1,363 3 PDGA #40691 997.5000 1.3869 190
Sherwood Island Open 2011-04-23 C Westport 12 979.8750 0 2 PDGA #23857 1022.5000 0.0000 0
Get Ripped Wide Open 2010-09-11 C Southington 14 959.5357 1,218 2 PDGA #19987 985.5000 1.8522 213
Cranbury Classic 2010-08-22 A Norwalk 27 993.4321 15,926 4 Nikko Locastro 1050.3333 5.9195 1,030
Greater Hartford Open 2010-07-25 B Manchester 21 979.5000 2,316 2 PDGA #20090 1021.5000 2.9921 380
Waveny Open 2010-06-27 C New canaan 15 978.9667 1,350 2 Steve Brinster 1031.5000 2.0505 203
Utopia Open 2010-04-17 C Westport 18 975.5556 3,658 2 Steve Brinster 1027.0000 5.2903 492
Waveny Open 2009-09-20 C New Canaan 7 973.4615 596 2 PDGA #23188 1033.5000 1.3861 140
Get Ripped Wide Open 2009-08-29 C Southington 8 968.3571 900 2 PDGA #23857 996.5000 1.8291 214
The Cranbury Classic 2009-08-23 A Norwalk 26 978.1842 12,776 4 Steve Brinster 1052.3333 5.2716 854
Greater Hartford Open 2009-07-04 C Manchester 17 964.7059 1,550 2 PDGA #19410 1008.0000 2.1121 245
Frizzak Open 2009-04-25 C Norwalk 20 970.1750 1,732 2 PDGA #19656 1025.0000 2.5000 250
2008 Fairfield Open 2008-09-28 C Fairfield 11 974.1818 1,030 2 PDGA #20090 1019.5000 1.9474 185
Cranbury Classic 2008-07-19 B Norwalk 23 970.0000 5,040 2 Adam Olsen 1010.0000 6.5196 665
Greater Hartford Open 2008-07-12 C Manchester 15 953.9333 1,460 2 PDGA #32358 993.0000 2.0982 235
Greater Hartford Disc Golf Open 2007-07-14 C Manchester 23 960.4565 2,342 2 PDGA #19656 1006.0000 2.6667 288
Fairfield Open 2006-09-09 C Fairfield 19 974.5526 1,540 2 Steve Brinster 1000.5000 2.2000 220
Greater Hartford Open 2006-07-15 C Manchester 15 970.0667 1,366 2 Craig Cutler 1011.0000 2.4537 265
Fairfield Open 2005-10-23 C Fairfield 14 969.1111 1,082 2 PDGA #20090 1001.0000 1.9626 210
Greater Hartford Open 2005-07-09 C Manchester 15 965.1333 1,682 2 Steve Brinster 1009.0000 3.4259 370
Fairfield Open 2004-08-21 C Fairfield 11 943.0000 1,325 3 PDGA #9038 975.5000 1.5504 200
Fairfield Open 2003-10-18 C Fairfield 10 938.4500 1,320 3 PDGA #16585 960.5000 1.5267 200
Fairfield Open 2002-10-20 C Fairfield 15 941.6000 1,570 3 PDGA #4136 991.0000 1.6279 210
Fairfield Open 2001-10-27 C Fairfield 16 935.2000 1,240 2 Ron Turner 970.0000 1.8317 185
Connecticut State Flying Disc Championships 1999-08-28 C Norwalk 27 680 2 PDGA #11047 1.3725 140
Connecticut States 1984-06-17 C Norwalk 27 0 2 PDGA #1531 0.0000 0